Weather at Inanli Village Border Post Helipad

Public forecast

Using degrees Celsius for public forecast. Weather courtesy of forecast.io.

Closest aviation weather report (METAR) to Inanli Village Border Post Helipad

Closest report is Gaziantep International Airport, 22.6 nm (41.9 km) NE.

2024/07/24 15:20 (retrieved 34 minutes ago)

LTAJ 241520Z 28019KT 9999 SCT040 33/17 Q1001 NOSIG RMK RWY10 27018KT 3CU040

Closest aviation forecast (TAF) to Inanli Village Border Post Helipad

Closest forecast is Gaziantep International Airport, 22.6 nm (41.9 km) NE.

2024/07/24 12:03 (retrieved 4 hours ago)

TAF LTAJ 241040Z 2412/2512 28013KT 9999 SCT040 TEMPO 2412/2416 30015G25KT BECMG 2415/2417 CAVOK BECMG 2419/2421 VRB02KT BECMG 2506/2508 26012KT